createdAt,value
2016-11-22T00:00:04.009Z,0
2016-11-22T00:01:04.314Z,0
2016-11-22T00:02:04.298Z,0
2016-11-22T00:03:03.979Z,0
2016-11-22T00:04:03.996Z,0
2016-11-22T00:05:03.951Z,0
2016-11-22T00:06:03.955Z,0
2016-11-22T00:07:03.923Z,0
2016-11-22T00:08:03.943Z,0
2016-11-22T00:09:03.893Z,0
2016-11-22T00:10:03.877Z,0
2016-11-22T00:11:04.179Z,0
2016-11-22T00:12:03.861Z,0
2016-11-22T00:13:03.847Z,0
2016-11-22T00:14:03.835Z,0
2016-11-22T00:15:03.816Z,0
2016-11-22T00:16:03.804Z,0
2016-11-22T00:17:04.419Z,0
2016-11-22T00:18:03.777Z,0
2016-11-22T00:19:03.760Z,0
2016-11-22T00:20:03.749Z,0
2016-11-22T00:21:03.739Z,0
2016-11-22T00:22:03.728Z,0
2016-11-22T00:23:03.721Z,0
2016-11-22T00:24:03.695Z,0
2016-11-22T00:25:03.685Z,0
2016-11-22T00:26:03.677Z,0
2016-11-22T00:27:03.650Z,0
2016-11-22T00:28:03.642Z,0
2016-11-22T00:29:03.958Z,0
2016-11-22T00:30:03.665Z,0
2016-11-22T00:31:03.601Z,0
2016-11-22T00:32:03.583Z,0
2016-11-22T00:33:03.573Z,0
2016-11-22T00:34:03.562Z,0
2016-11-22T00:35:03.549Z,0
2016-11-22T00:36:03.546Z,0
2016-11-22T00:37:03.828Z,0
2016-11-22T00:38:03.506Z,0
2016-11-22T00:39:03.487Z,0
2016-11-22T00:40:03.481Z,0
2016-11-22T00:41:03.469Z,0
2016-11-22T00:42:03.447Z,0
2016-11-22T00:43:03.439Z,0
2016-11-22T00:44:03.740Z,0
2016-11-22T00:45:03.406Z,0
2016-11-22T00:46:03.395Z,0
2016-11-22T00:47:03.375Z,0
2016-11-22T00:48:03.370Z,0
2016-11-22T00:49:03.353Z,0
2016-11-22T00:50:03.336Z,0
2016-11-22T00:51:03.328Z,0
2016-11-22T00:52:03.313Z,0
2016-11-22T00:53:03.298Z,0
2016-11-22T00:54:03.289Z,0
2016-11-22T00:55:03.264Z,0
2016-11-22T00:56:03.573Z,0
2016-11-22T00:57:03.241Z,0
2016-11-22T00:58:03.234Z,0
2016-11-22T00:59:03.216Z,0
2016-11-22T01:00:03.516Z,0
2016-11-22T01:01:03.185Z,0
2016-11-22T01:02:03.490Z,0
2016-11-22T01:03:03.160Z,0
2016-11-22T01:04:03.143Z,0
2016-11-22T01:05:03.452Z,0
2016-11-22T01:06:03.433Z,0
2016-11-22T01:07:03.107Z,0
2016-11-22T01:08:03.099Z,0
2016-11-22T01:09:03.089Z,0
2016-11-22T01:10:03.076Z,0
2016-11-22T01:11:03.382Z,0
2016-11-22T01:12:03.368Z,0
2016-11-22T01:13:03.342Z,0
2016-11-22T01:14:03.014Z,0
2016-11-22T01:15:03.002Z,0
2016-11-22T01:16:03.302Z,0
2016-11-22T01:17:03.297Z,0
2016-11-22T01:18:02.970Z,0
2016-11-22T01:19:02.951Z,0
2016-11-22T01:20:02.935Z,0
2016-11-22T01:21:02.920Z,0
2016-11-22T01:22:02.905Z,0
2016-11-22T01:23:02.896Z,0
2016-11-22T01:24:02.876Z,0
2016-11-22T01:25:02.892Z,0
2016-11-22T01:26:02.853Z,0
2016-11-22T01:27:02.841Z,0
2016-11-22T01:28:03.141Z,0
2016-11-22T01:29:02.838Z,0
2016-11-22T01:30:02.801Z,0
2016-11-22T01:31:02.788Z,0
2016-11-22T01:32:02.772Z,0
2016-11-22T01:33:02.758Z,0
2016-11-22T01:34:02.748Z,0
2016-11-22T01:35:02.729Z,0
2016-11-22T01:36:02.718Z,0
2016-11-22T01:37:03.028Z,0
2016-11-22T01:38:03.340Z,0
2016-11-22T01:39:02.995Z,0
2016-11-22T01:40:02.667Z,0
2016-11-22T01:41:02.655Z,0
2016-11-22T01:42:02.644Z,0
2016-11-22T01:43:02.627Z,0
2016-11-22T01:44:02.811Z,0
2016-11-22T01:45:02.913Z,0
2016-11-22T01:46:02.586Z,0
2016-11-22T01:47:02.571Z,0
2016-11-22T01:48:02.555Z,0
2016-11-22T01:49:02.549Z,0
2016-11-22T01:50:02.530Z,0
2016-11-22T01:51:02.538Z,0
2016-11-22T01:52:02.506Z,0
2016-11-22T01:53:02.491Z,0
2016-11-22T01:54:02.481Z,0
2016-11-22T01:55:02.465Z,0
2016-11-22T01:56:02.452Z,0
2016-11-22T01:57:02.438Z,0
2016-11-22T01:58:02.428Z,0
2016-11-22T01:59:02.750Z,0
2016-11-22T02:00:02.395Z,0
2016-11-22T02:01:02.386Z,0
2016-11-22T02:02:02.377Z,0
2016-11-22T02:03:02.386Z,0
2016-11-22T02:04:02.348Z,0
2016-11-22T02:05:02.643Z,0
2016-11-22T02:06:02.317Z,0
2016-11-22T02:07:02.299Z,0
2016-11-22T02:08:02.298Z,0
2016-11-22T02:09:02.275Z,0
2016-11-22T02:10:02.265Z,0
2016-11-22T02:11:02.256Z,0
2016-11-22T02:12:02.244Z,0
2016-11-22T02:13:02.222Z,0
2016-11-22T02:14:02.214Z,0
2016-11-22T02:15:02.193Z,0
2016-11-22T02:16:02.504Z,0
2016-11-22T02:17:02.163Z,0
2016-11-22T02:18:02.157Z,0
2016-11-22T02:19:02.142Z,0
2016-11-22T02:20:02.137Z,0
2016-11-22T02:21:02.425Z,0
2016-11-22T02:22:02.101Z,0
2016-11-22T02:23:02.087Z,0
2016-11-22T02:24:02.074Z,0
2016-11-22T02:25:02.061Z,0
2016-11-22T02:26:02.044Z,0
2016-11-22T02:27:02.029Z,0
2016-11-22T02:28:02.074Z,0
2016-11-22T02:29:02.321Z,0
2016-11-22T02:30:02.303Z,0
2016-11-22T02:31:01.978Z,0
2016-11-22T02:32:01.961Z,0
2016-11-22T02:33:01.947Z,0
2016-11-22T02:34:01.948Z,0
2016-11-22T02:35:01.921Z,0
2016-11-22T02:36:02.256Z,0
2016-11-22T02:37:01.903Z,0
2016-11-22T02:38:02.192Z,0
2016-11-22T02:39:02.181Z,0
2016-11-22T02:40:01.851Z,0
2016-11-22T02:41:02.151Z,0
2016-11-22T02:42:01.820Z,0
2016-11-22T02:43:01.814Z,0
2016-11-22T02:44:01.795Z,0
2016-11-22T02:45:01.799Z,0
2016-11-22T02:46:01.762Z,0
2016-11-22T02:47:01.759Z,0
2016-11-22T02:48:01.745Z,0
2016-11-22T02:49:01.730Z,0
2016-11-22T02:50:01.712Z,0
2016-11-22T02:51:01.714Z,0
2016-11-22T02:52:01.685Z,0
2016-11-22T02:53:01.668Z,0
2016-11-22T02:54:01.657Z,0
2016-11-22T02:55:01.655Z,0
2016-11-22T02:56:01.633Z,0
2016-11-22T02:57:01.621Z,0
2016-11-22T02:58:01.597Z,0
2016-11-22T02:59:01.589Z,0
2016-11-22T03:00:01.893Z,0
2016-11-22T03:01:01.876Z,0
2016-11-22T03:02:01.859Z,0
2016-11-22T03:03:01.534Z,0
2016-11-22T03:04:01.521Z,0
2016-11-22T03:05:01.818Z,0
2016-11-22T03:06:01.490Z,0
2016-11-22T03:07:01.473Z,0
2016-11-22T03:08:01.462Z,0
2016-11-22T03:09:01.459Z,0
2016-11-22T03:10:01.439Z,0
2016-11-22T03:11:01.428Z,0
2016-11-22T03:12:01.721Z,0
2016-11-22T03:13:01.710Z,0
2016-11-22T03:14:01.695Z,0
2016-11-22T03:15:01.362Z,0
2016-11-22T03:16:01.353Z,0
2016-11-22T03:17:01.338Z,0
2016-11-22T03:18:01.325Z,0
2016-11-22T03:19:01.313Z,0
2016-11-22T03:20:01.296Z,0
2016-11-22T03:21:01.286Z,0
2016-11-22T03:22:01.271Z,0
2016-11-22T03:23:01.602Z,0
2016-11-22T03:24:01.237Z,0
2016-11-22T03:25:01.541Z,0
2016-11-22T03:26:01.230Z,0
2016-11-22T03:27:01.224Z,0
2016-11-22T03:28:01.500Z,0
2016-11-22T03:29:01.173Z,0
2016-11-22T03:30:01.158Z,0
2016-11-22T03:31:01.144Z,0
2016-11-22T03:32:01.135Z,0
2016-11-22T03:33:01.431Z,0
2016-11-22T03:34:01.095Z,0
2016-11-22T03:35:01.092Z,0
2016-11-22T03:36:01.072Z,0
2016-11-22T03:37:01.064Z,0
2016-11-22T03:38:01.051Z,0
2016-11-22T03:39:01.029Z,0
2016-11-22T03:40:01.019Z,0
2016-11-22T03:41:01.008Z,0
2016-11-22T03:42:00.993Z,0
2016-11-22T03:43:01.295Z,0
2016-11-22T03:44:01.474Z,0
2016-11-22T03:45:00.948Z,0
2016-11-22T03:46:00.934Z,0
2016-11-22T03:47:00.924Z,0
2016-11-22T03:48:00.908Z,0
2016-11-22T03:49:00.893Z,0
2016-11-22T03:50:00.916Z,0
2016-11-22T03:51:00.866Z,0
2016-11-22T03:52:00.848Z,0
2016-11-22T03:53:01.162Z,0
2016-11-22T03:54:00.834Z,0
2016-11-22T03:55:00.818Z,0
2016-11-22T03:56:00.804Z,0
2016-11-22T03:57:00.786Z,0
2016-11-22T03:58:01.084Z,0
2016-11-22T03:59:00.757Z,0
2016-11-22T04:00:00.737Z,0
2016-11-22T04:01:00.726Z,0
2016-11-22T04:02:00.716Z,0
2016-11-22T04:03:01.014Z,0
2016-11-22T04:04:00.728Z,0
2016-11-22T04:05:00.702Z,0
2016-11-22T04:06:00.659Z,0
2016-11-22T04:07:00.962Z,0
2016-11-22T04:08:00.631Z,0
2016-11-22T04:09:00.623Z,0
2016-11-22T04:10:00.601Z,0
2016-11-22T04:11:00.597Z,0
2016-11-22T04:12:00.898Z,0
2016-11-22T04:13:00.564Z,0
2016-11-22T04:14:00.865Z,0
2016-11-22T04:15:00.536Z,0
2016-11-22T04:16:00.526Z,0
2016-11-22T04:17:00.558Z,0
2016-11-22T04:18:00.810Z,0
2016-11-22T04:19:00.478Z,0
2016-11-22T04:20:00.468Z,0
2016-11-22T04:21:00.458Z,0
2016-11-22T04:22:00.437Z,0
2016-11-22T04:23:00.424Z,0
2016-11-22T04:24:00.414Z,0
2016-11-22T04:25:01.033Z,0
2016-11-22T04:26:00.693Z,0
2016-11-22T04:27:00.368Z,0
2016-11-22T04:28:00.358Z,0
2016-11-22T04:29:00.341Z,0
2016-11-22T04:30:00.327Z,0
2016-11-22T04:31:00.313Z,0
2016-11-22T04:32:00.303Z,0
2016-11-22T04:33:00.286Z,0
2016-11-22T04:34:00.281Z,0
2016-11-22T04:35:00.258Z,0
2016-11-22T04:36:00.242Z,0
2016-11-22T04:37:00.232Z,0
2016-11-22T04:38:00.224Z,0
2016-11-22T04:39:00.263Z,0
2016-11-22T04:40:00.190Z,0
2016-11-22T04:41:00.175Z,0
2016-11-22T04:42:00.162Z,0
2016-11-22T04:43:00.152Z,0
2016-11-22T04:44:00.479Z,0
2016-11-22T04:45:00.136Z,0
2016-11-22T04:46:00.109Z,0
2016-11-22T04:47:00.093Z,0
2016-11-22T04:48:00.084Z,0
2016-11-22T04:49:00.070Z,0
2016-11-22T04:50:00.057Z,0
2016-11-22T04:51:00.044Z,0
2016-11-22T04:52:00.030Z,0
2016-11-22T04:53:00.017Z,0
2016-11-22T04:54:00.006Z,0
2016-11-22T04:54:59.991Z,0
2016-11-22T04:56:00.002Z,0
2016-11-22T04:56:59.965Z,0
2016-11-22T04:57:59.951Z,0
2016-11-22T04:58:59.934Z,0
2016-11-22T04:59:59.923Z,0
2016-11-22T05:00:59.911Z,0
2016-11-22T05:01:59.895Z,0
2016-11-22T05:02:59.882Z,0
2016-11-22T05:03:59.866Z,0
2016-11-22T05:04:59.852Z,0
2016-11-22T05:06:00.157Z,0
2016-11-22T05:06:59.830Z,0
2016-11-22T05:07:59.822Z,0
2016-11-22T05:08:59.804Z,0
2016-11-22T05:10:00.106Z,0
2016-11-22T05:10:59.777Z,0
2016-11-22T05:11:59.761Z,0
2016-11-22T05:13:00.068Z,0
2016-11-22T05:14:00.066Z,0
2016-11-22T05:14:59.731Z,0
2016-11-22T05:15:59.717Z,0
2016-11-22T05:17:00.016Z,0
2016-11-22T05:17:59.686Z,0
2016-11-22T05:18:59.668Z,0
2016-11-22T05:19:59.660Z,0
2016-11-22T05:20:59.647Z,0
2016-11-22T05:21:59.633Z,0
2016-11-22T05:22:59.618Z,0
2016-11-22T05:23:59.917Z,0
2016-11-22T05:24:59.592Z,0
2016-11-22T05:25:59.575Z,0
2016-11-22T05:26:59.569Z,0
2016-11-22T05:27:59.549Z,0
2016-11-22T05:28:59.541Z,0
2016-11-22T05:29:59.832Z,0
2016-11-22T05:30:59.504Z,0
2016-11-22T05:31:59.493Z,0
2016-11-22T05:32:59.483Z,0
2016-11-22T05:33:59.466Z,0
2016-11-22T05:34:59.455Z,0
2016-11-22T05:35:59.448Z,0
2016-11-22T05:36:59.453Z,0
2016-11-22T05:37:59.428Z,0
2016-11-22T05:38:59.416Z,0
2016-11-22T05:39:59.395Z,0
2016-11-22T05:40:59.377Z,0
2016-11-22T05:41:59.418Z,0
2016-11-22T05:42:59.356Z,0
2016-11-22T05:43:59.534Z,0
2016-11-22T05:44:59.321Z,0
2016-11-22T05:45:59.307Z,0
2016-11-22T05:46:59.332Z,0
2016-11-22T05:47:59.300Z,0
2016-11-22T05:48:59.579Z,0
2016-11-22T05:49:59.569Z,0
2016-11-22T05:50:59.559Z,0
2016-11-22T05:51:59.221Z,0
2016-11-22T05:52:59.233Z,0
2016-11-22T05:53:59.197Z,0
2016-11-22T05:54:59.186Z,0
2016-11-22T05:55:59.175Z,0
2016-11-22T05:56:59.167Z,0
2016-11-22T05:57:59.150Z,0
2016-11-22T05:58:59.133Z,0
2016-11-22T05:59:59.116Z,0
2016-11-22T06:00:59.108Z,0
2016-11-22T06:01:59.413Z,0
2016-11-22T06:02:59.086Z,0
2016-11-22T06:03:59.377Z,0
2016-11-22T06:04:59.053Z,0
2016-11-22T06:05:59.351Z,0
2016-11-22T06:06:59.023Z,0
2016-11-22T06:07:59.012Z,0
2016-11-22T06:08:59.318Z,0
2016-11-22T06:09:58.987Z,0
2016-11-22T06:10:58.972Z,0
2016-11-22T06:11:58.971Z,0
2016-11-22T06:12:59.262Z,0
2016-11-22T06:13:59.248Z,0
2016-11-22T06:14:58.918Z,0
2016-11-22T06:15:58.911Z,0
2016-11-22T06:16:58.895Z,0
2016-11-22T06:17:58.903Z,0
2016-11-22T06:18:58.867Z,0
2016-11-22T06:19:58.903Z,0
2016-11-22T06:20:58.847Z,0
2016-11-22T06:21:58.825Z,0
2016-11-22T06:22:58.810Z,0
2016-11-22T06:23:58.804Z,0
2016-11-22T06:24:58.791Z,0
2016-11-22T06:25:58.818Z,0
2016-11-22T06:26:59.120Z,0
2016-11-22T06:27:58.748Z,0
2016-11-22T06:28:59.051Z,0
2016-11-22T06:29:58.714Z,0
2016-11-22T06:30:58.699Z,4
2016-11-22T06:31:59.002Z,4
2016-11-22T06:32:58.672Z,4
2016-11-22T06:33:58.666Z,4
2016-11-22T06:34:58.651Z,4
2016-11-22T06:35:58.638Z,8
2016-11-22T06:36:58.935Z,4
2016-11-22T06:37:58.614Z,8
2016-11-22T06:38:58.915Z,8
2016-11-22T06:39:58.581Z,12
2016-11-22T06:40:58.881Z,12
2016-11-22T06:41:58.864Z,12
2016-11-22T06:42:58.540Z,16
2016-11-22T06:43:58.839Z,20
2016-11-22T06:44:58.514Z,24
2016-11-22T06:45:59.128Z,24
2016-11-22T06:46:58.481Z,28
2016-11-22T06:47:58.467Z,36
2016-11-22T06:48:58.458Z,36
2016-11-22T06:49:58.444Z,40
2016-11-22T06:50:58.432Z,48
2016-11-22T06:51:58.426Z,56
2016-11-22T06:52:58.406Z,60
2016-11-22T06:53:59.021Z,64
2016-11-22T06:54:58.375Z,72
2016-11-22T06:55:58.360Z,80
2016-11-22T06:56:58.351Z,88
2016-11-22T06:57:58.650Z,96
2016-11-22T06:58:58.339Z,100
2016-11-22T06:59:58.946Z,108
2016-11-22T07:00:58.290Z,120
2016-11-22T07:01:58.592Z,128
2016-11-22T07:02:58.263Z,136
2016-11-22T07:03:58.566Z,144
2016-11-22T07:04:58.252Z,152
2016-11-22T07:05:58.225Z,156
2016-11-22T07:06:58.528Z,164
2016-11-22T07:07:58.199Z,172
2016-11-22T07:08:58.501Z,184
2016-11-22T07:09:58.169Z,192
2016-11-22T07:10:58.161Z,204
2016-11-22T07:11:58.153Z,220
2016-11-22T07:12:58.128Z,232
2016-11-22T07:13:58.751Z,244
2016-11-22T07:14:58.442Z,260
2016-11-22T07:15:58.092Z,268
2016-11-22T07:16:58.705Z,280
2016-11-22T07:17:58.065Z,296
2016-11-22T07:18:58.041Z,308
2016-11-22T07:19:58.347Z,320
2016-11-22T07:20:58.017Z,332
2016-11-22T07:21:58.000Z,344
2016-11-22T07:22:57.991Z,364
2016-11-22T07:23:57.969Z,380
2016-11-22T07:24:57.958Z,400
2016-11-22T07:25:58.260Z,416
2016-11-22T07:26:57.933Z,428
2016-11-22T07:27:58.230Z,444
2016-11-22T07:28:57.959Z,464
2016-11-22T07:29:57.894Z,500
2016-11-22T07:30:57.872Z,540
2016-11-22T07:31:58.181Z,572
2016-11-22T07:32:58.164Z,584
2016-11-22T07:33:57.834Z,588
2016-11-22T07:34:57.828Z,592
2016-11-22T07:35:57.811Z,612
2016-11-22T07:36:57.797Z,644
2016-11-22T07:37:58.133Z,680
2016-11-22T07:38:57.770Z,716
2016-11-22T07:39:57.762Z,744
2016-11-22T07:40:57.739Z,780
2016-11-22T07:41:58.051Z,816
2016-11-22T07:42:57.738Z,848
2016-11-22T07:43:57.901Z,880
2016-11-22T07:44:57.734Z,912
2016-11-22T07:45:57.669Z,948
2016-11-22T07:46:57.709Z,988
2016-11-22T07:47:57.964Z,1024
2016-11-22T07:48:57.630Z,1048
2016-11-22T07:49:57.613Z,1080
2016-11-22T07:50:57.599Z,1108
2016-11-22T07:51:57.585Z,1132
2016-11-22T07:52:57.892Z,1156
2016-11-22T07:53:57.558Z,1164
2016-11-22T07:54:57.857Z,1204
2016-11-22T07:55:57.530Z,1252
2016-11-22T07:56:57.521Z,1284
2016-11-22T07:57:57.823Z,1292
2016-11-22T07:58:57.521Z,1320
2016-11-22T07:59:57.478Z,1368
2016-11-22T08:00:57.778Z,1432
2016-11-22T08:01:57.456Z,1484
2016-11-22T08:02:57.448Z,1544
2016-11-22T08:03:57.432Z,1620
2016-11-22T08:04:57.419Z,1692
2016-11-22T08:05:57.406Z,1720
2016-11-22T08:06:57.385Z,1728
2016-11-22T08:07:57.717Z,1800
2016-11-22T08:08:57.353Z,1892
2016-11-22T08:09:57.343Z,1992
2016-11-22T08:10:57.339Z,2108
2016-11-22T08:11:57.314Z,2240
2016-11-22T08:12:57.618Z,2384
2016-11-22T08:13:57.287Z,2508
2016-11-22T08:14:57.275Z,2564
2016-11-22T08:15:57.307Z,2592
2016-11-22T08:16:57.255Z,2616
2016-11-22T08:17:57.239Z,2668
2016-11-22T08:18:57.225Z,2708
2016-11-22T08:19:57.211Z,2744
2016-11-22T08:20:57.508Z,2808
2016-11-22T08:21:57.502Z,2896
2016-11-22T08:22:57.491Z,2992
2016-11-22T08:23:57.164Z,3144
2016-11-22T08:24:57.138Z,3256
2016-11-22T08:25:57.132Z,3360
2016-11-22T08:26:57.119Z,3404
2016-11-22T08:27:57.417Z,3468
2016-11-22T08:28:57.475Z,3500
2016-11-22T08:29:57.081Z,3556
2016-11-22T08:30:57.076Z,3632
2016-11-22T08:31:57.057Z,3588
2016-11-22T08:32:57.664Z,3564
2016-11-22T08:33:57.022Z,3604
2016-11-22T08:34:57.326Z,3584
2016-11-22T08:35:57.018Z,3576
2016-11-22T08:36:56.981Z,3640
2016-11-22T08:37:57.284Z,3696
2016-11-22T08:38:56.949Z,3744
2016-11-22T08:39:56.947Z,3720
2016-11-22T08:40:57.237Z,3568
2016-11-22T08:41:57.225Z,3384
2016-11-22T08:42:56.898Z,3044
2016-11-22T08:43:56.885Z,2780
2016-11-22T08:44:56.874Z,2816
2016-11-22T08:45:56.860Z,2856
2016-11-22T08:46:56.905Z,2700
2016-11-22T08:47:56.837Z,2608
2016-11-22T08:48:57.132Z,2672
2016-11-22T08:49:57.120Z,2628
2016-11-22T08:50:57.180Z,2572
2016-11-22T08:51:56.779Z,2604
2016-11-22T08:52:56.768Z,2716
2016-11-22T08:53:56.755Z,2984
2016-11-22T08:54:56.749Z,3068
2016-11-22T08:55:56.733Z,3132
2016-11-22T08:56:56.718Z,3272
2016-11-22T08:57:56.722Z,3468
2016-11-22T08:58:56.692Z,3532
2016-11-22T08:59:56.687Z,3572
2016-11-22T09:00:56.665Z,3604
2016-11-22T09:01:56.649Z,3672
2016-11-22T09:02:56.650Z,3964
2016-11-22T09:03:56.626Z,4268
2016-11-22T09:04:56.663Z,4424
2016-11-22T09:05:56.594Z,4312
2016-11-22T09:06:56.587Z,4404
2016-11-22T09:07:56.905Z,4520
2016-11-22T09:08:56.555Z,4476
2016-11-22T09:09:56.550Z,4424
2016-11-22T09:10:56.535Z,4276
2016-11-22T09:11:56.532Z,4136
2016-11-22T09:12:56.502Z,4012
2016-11-22T09:13:56.512Z,3768
2016-11-22T09:14:56.482Z,3412
2016-11-22T09:15:56.478Z,3184
2016-11-22T09:16:56.777Z,3208
2016-11-22T09:17:56.759Z,3260
2016-11-22T09:18:56.754Z,3324
2016-11-22T09:19:56.465Z,3488
2016-11-22T09:20:56.420Z,3968
2016-11-22T09:21:57.020Z,4496
2016-11-22T09:22:56.380Z,5064
2016-11-22T09:23:56.369Z,5456
2016-11-22T09:24:56.356Z,5612
2016-11-22T09:25:56.350Z,5696
2016-11-22T09:26:56.703Z,5972
2016-11-22T09:27:56.328Z,5800
2016-11-22T09:28:56.309Z,5684
2016-11-22T09:29:56.313Z,5524
2016-11-22T09:30:56.605Z,5348
2016-11-22T09:31:56.275Z,5420
2016-11-22T09:32:56.258Z,5580
2016-11-22T09:33:56.620Z,5704
2016-11-22T09:34:56.232Z,5760
2016-11-22T09:35:56.610Z,5704
2016-11-22T09:36:56.263Z,5668
2016-11-22T09:37:56.196Z,5812
2016-11-22T09:38:56.182Z,5836
2016-11-22T09:39:56.490Z,6076
2016-11-22T09:40:56.162Z,6460
2016-11-22T09:41:56.152Z,6976
2016-11-22T09:42:56.458Z,7284
2016-11-22T09:43:56.329Z,7180
2016-11-22T09:44:56.749Z,7036
2016-11-22T09:45:56.115Z,6884
2016-11-22T09:46:56.087Z,6656
2016-11-22T09:47:56.091Z,6612
2016-11-22T09:48:56.060Z,6720
2016-11-22T09:49:56.058Z,6832
2016-11-22T09:50:56.386Z,6832
2016-11-22T09:51:56.030Z,6612
2016-11-22T09:52:56.412Z,6336
2016-11-22T09:53:56.360Z,6276
2016-11-22T09:54:55.994Z,6300
2016-11-22T09:55:55.984Z,6392
2016-11-22T09:56:56.609Z,6328
2016-11-22T09:57:55.959Z,6212
2016-11-22T09:58:55.953Z,6120
2016-11-22T09:59:56.245Z,6184
2016-11-22T10:00:55.923Z,6288
2016-11-22T10:01:55.913Z,6216
2016-11-22T10:02:55.901Z,6200
2016-11-22T10:03:55.914Z,6404
2016-11-22T10:04:56.204Z,6516
2016-11-22T10:05:55.865Z,6640
2016-11-22T10:06:55.862Z,6696
2016-11-22T10:07:55.847Z,6508
2016-11-22T10:08:55.828Z,6120
2016-11-22T10:09:55.823Z,5720
2016-11-22T10:10:55.805Z,5560
2016-11-22T10:11:55.794Z,5540
2016-11-22T10:12:55.783Z,5688
2016-11-22T10:13:55.770Z,5960
2016-11-22T10:14:56.094Z,6388
2016-11-22T10:15:56.065Z,6616
2016-11-22T10:16:55.743Z,6752
2016-11-22T10:17:55.725Z,6864
2016-11-22T10:18:56.024Z,7128
2016-11-22T10:19:55.700Z,7116
2016-11-22T10:20:56.005Z,7020
2016-11-22T10:21:55.687Z,7052
2016-11-22T10:22:55.669Z,7288
2016-11-22T10:23:55.657Z,7288
2016-11-22T10:24:55.637Z,7336
2016-11-22T10:25:55.632Z,7544
2016-11-22T10:26:55.620Z,7808
2016-11-22T10:27:55.624Z,8092
2016-11-22T10:28:55.910Z,8440
2016-11-22T10:29:55.589Z,8168
2016-11-22T10:30:55.597Z,7744
2016-11-22T10:31:55.562Z,7320
2016-11-22T10:32:55.548Z,7052
2016-11-22T10:33:55.595Z,7116
2016-11-22T10:34:55.523Z,7488
2016-11-22T10:35:55.521Z,7648
2016-11-22T10:36:55.503Z,8036
2016-11-22T10:37:55.543Z,8232
2016-11-22T10:38:55.481Z,8000
2016-11-22T10:39:55.474Z,7484
2016-11-22T10:40:55.457Z,7068
2016-11-22T10:41:55.446Z,7004
2016-11-22T10:42:55.759Z,6948
2016-11-22T10:43:55.424Z,6980
2016-11-22T10:44:55.414Z,7368
2016-11-22T10:45:55.402Z,7968
2016-11-22T10:46:55.397Z,8592
2016-11-22T10:47:55.389Z,9172
2016-11-22T10:48:55.367Z,9212
2016-11-22T10:49:55.360Z,8468
2016-11-22T10:50:55.349Z,7992
2016-11-22T10:51:55.337Z,8084
2016-11-22T10:52:55.323Z,8424
2016-11-22T10:53:55.311Z,8276
2016-11-22T10:54:55.310Z,7360
2016-11-22T10:55:55.291Z,6396
2016-11-22T10:56:55.279Z,5484
2016-11-22T10:57:55.277Z,5120
2016-11-22T10:58:55.256Z,5064
2016-11-22T10:59:55.568Z,5012
2016-11-22T11:00:55.241Z,4888
2016-11-22T11:01:55.234Z,4888
2016-11-22T11:02:55.543Z,4928
2016-11-22T11:03:55.196Z,4768
2016-11-22T11:04:55.541Z,4660
2016-11-22T11:05:55.191Z,4724
2016-11-22T11:06:55.206Z,4860
2016-11-22T11:07:55.161Z,4820
2016-11-22T11:08:55.149Z,4880
2016-11-22T11:09:55.460Z,4876
2016-11-22T11:10:55.439Z,4912
2016-11-22T11:11:55.750Z,4980
2016-11-22T11:12:55.102Z,5084
2016-11-22T11:13:55.414Z,5044
2016-11-22T11:14:55.084Z,5048
2016-11-22T11:15:55.426Z,4976
2016-11-22T11:16:55.059Z,5160
2016-11-22T11:17:55.048Z,5400
2016-11-22T11:18:55.035Z,6072
2016-11-22T11:19:55.025Z,7028
2016-11-22T11:20:55.015Z,7880
2016-11-22T11:21:55.018Z,8148
2016-11-22T11:22:55.322Z,8292
2016-11-22T11:23:54.979Z,8808
2016-11-22T11:24:54.972Z,9180
2016-11-22T11:25:55.001Z,9384
2016-11-22T11:26:54.944Z,9548
2016-11-22T11:27:54.932Z,9480
2016-11-22T11:28:54.927Z,8944
2016-11-22T11:29:54.908Z,8656
2016-11-22T11:30:54.897Z,8780
2016-11-22T11:31:54.890Z,9008
2016-11-22T11:32:54.871Z,9172
2016-11-22T11:33:54.869Z,9428
2016-11-22T11:34:55.175Z,9772
2016-11-22T11:35:54.842Z,10140
2016-11-22T11:36:54.864Z,10452
2016-11-22T11:37:54.816Z,10736
2016-11-22T11:38:55.128Z,10808
2016-11-22T11:39:54.799Z,10868
2016-11-22T11:40:54.814Z,11056
2016-11-22T11:41:54.837Z,11088
2016-11-22T11:42:55.090Z,10984
2016-11-22T11:43:54.958Z,10744
2016-11-22T11:44:55.063Z,10416
2016-11-22T11:45:54.736Z,10188
2016-11-22T11:46:54.721Z,9616
2016-11-22T11:47:54.719Z,9596
2016-11-22T11:48:54.699Z,9288
2016-11-22T11:49:55.011Z,9220
2016-11-22T11:50:54.712Z,10000
2016-11-22T11:51:54.679Z,10852
2016-11-22T11:52:54.666Z,10712
2016-11-22T11:53:54.672Z,10616
2016-11-22T11:54:54.643Z,10900
2016-11-22T11:55:54.635Z,11048
2016-11-22T11:56:54.631Z,10608
2016-11-22T11:57:54.614Z,10632
2016-11-22T11:58:54.605Z,11620
2016-11-22T11:59:54.592Z,10848
2016-11-22T12:00:54.588Z,11072
2016-11-22T12:01:54.570Z,11124
2016-11-22T12:02:54.613Z,11304
2016-11-22T12:03:54.557Z,11424
2016-11-22T12:04:54.857Z,9976
2016-11-22T12:05:54.536Z,10032
2016-11-22T12:06:54.527Z,10056
2016-11-22T12:07:54.516Z,10656
2016-11-22T12:08:54.507Z,10436
2016-11-22T12:09:54.502Z,10596
2016-11-22T12:10:54.496Z,11460
2016-11-22T12:11:54.794Z,11564
2016-11-22T12:12:54.471Z,10516
2016-11-22T12:13:54.460Z,11512
2016-11-22T12:14:54.447Z,12044
2016-11-22T12:15:54.756Z,11812
2016-11-22T12:16:54.428Z,12764
2016-11-22T12:17:54.422Z,12136
2016-11-22T12:18:54.413Z,11616
2016-11-22T12:19:54.408Z,11208
2016-11-22T12:20:54.400Z,10688
2016-11-22T12:21:54.385Z,12004
2016-11-22T12:22:54.689Z,11524
2016-11-22T12:23:54.363Z,10780
2016-11-22T12:24:54.359Z,11032
2016-11-22T12:25:54.351Z,10236
2016-11-22T12:26:54.391Z,9768
2016-11-22T12:27:54.332Z,9328
2016-11-22T12:28:54.329Z,8836
2016-11-22T12:29:54.314Z,8688
2016-11-22T12:30:54.305Z,8492
2016-11-22T12:31:54.320Z,8232
2016-11-22T12:32:54.290Z,8572
2016-11-22T12:33:54.281Z,8864
2016-11-22T12:34:54.273Z,9072
2016-11-22T12:35:54.272Z,9084
2016-11-22T12:36:54.270Z,8500
2016-11-22T12:37:54.882Z,8560
2016-11-22T12:38:54.252Z,9016
2016-11-22T12:39:54.238Z,9204
2016-11-22T12:40:54.213Z,9284
2016-11-22T12:41:54.524Z,9176
2016-11-22T12:42:54.198Z,9320
2016-11-22T12:43:54.505Z,9436
2016-11-22T12:44:54.197Z,9132
2016-11-22T12:45:54.173Z,8736
2016-11-22T12:46:54.164Z,8492
2016-11-22T12:47:54.153Z,8384
2016-11-22T12:48:54.154Z,8384
2016-11-22T12:49:54.449Z,8464
2016-11-22T12:50:54.121Z,8416
2016-11-22T12:51:54.114Z,8256
2016-11-22T12:52:54.416Z,8312
2016-11-22T12:53:54.090Z,8328
2016-11-22T12:54:54.083Z,8160
2016-11-22T12:55:54.078Z,7884
2016-11-22T12:56:54.065Z,7740
2016-11-22T12:57:54.373Z,7708
2016-11-22T12:58:54.051Z,7864
2016-11-22T12:59:54.036Z,8400
2016-11-22T13:00:54.027Z,9548
2016-11-22T13:01:54.014Z,10604
2016-11-22T13:02:54.007Z,11672
2016-11-22T13:03:53.998Z,11848
2016-11-22T13:04:53.984Z,12264
2016-11-22T13:05:54.612Z,12164
2016-11-22T13:06:53.960Z,11500
2016-11-22T13:07:54.902Z,12044
2016-11-22T13:08:53.952Z,12136
2016-11-22T13:09:53.933Z,12304
2016-11-22T13:10:53.927Z,11388
2016-11-22T13:11:53.924Z,9988
2016-11-22T13:12:53.913Z,9688
2016-11-22T13:13:54.221Z,9036
2016-11-22T13:14:54.230Z,9000
2016-11-22T13:15:53.884Z,9432
2016-11-22T13:16:53.901Z,9564
2016-11-22T13:17:53.866Z,9680
2016-11-22T13:18:53.856Z,9280
2016-11-22T13:19:53.851Z,9052
2016-11-22T13:20:54.155Z,9196
2016-11-22T13:21:53.836Z,9184
2016-11-22T13:22:53.825Z,9164
2016-11-22T13:23:53.816Z,9160
2016-11-22T13:24:53.812Z,8640
2016-11-22T13:25:53.802Z,7852
2016-11-22T13:26:53.791Z,7480
2016-11-22T13:27:54.096Z,7192
2016-11-22T13:28:53.772Z,6968
2016-11-22T13:29:53.771Z,6780
2016-11-22T13:30:53.759Z,6592
2016-11-22T13:31:54.070Z,6272
2016-11-22T13:32:54.051Z,5872
2016-11-22T13:33:53.727Z,5536
2016-11-22T13:34:53.725Z,5184
2016-11-22T13:35:53.718Z,4788
2016-11-22T13:36:53.704Z,4408
2016-11-22T13:37:54.402Z,4056
2016-11-22T13:38:53.686Z,3784
2016-11-22T13:39:53.677Z,3548
2016-11-22T13:40:53.665Z,3340
2016-11-22T13:41:53.701Z,3192
2016-11-22T13:42:53.648Z,3104
2016-11-22T13:43:54.036Z,3072
2016-11-22T13:44:53.631Z,3052
2016-11-22T13:45:53.618Z,3004
2016-11-22T13:46:53.610Z,2932
2016-11-22T13:47:53.944Z,2840
2016-11-22T13:48:53.586Z,2728
2016-11-22T13:49:53.579Z,2604
2016-11-22T13:50:53.567Z,2488
2016-11-22T13:51:54.242Z,2372
2016-11-22T13:52:53.543Z,2268
2016-11-22T13:53:53.855Z,2184
2016-11-22T13:54:53.530Z,2116
2016-11-22T13:55:53.542Z,2088
2016-11-22T13:56:53.838Z,2080
2016-11-22T13:57:53.534Z,2080
2016-11-22T13:58:53.508Z,2092